Time;durP1;ratioP1;P1;durP2;ratioP2;P2;SDS_P1;SDS_P2;PMS_P1;PMS_P2;Temp;Humidity;BMP_temperature;BMP_pressure;BME280_temperature;BME280_humidity;BME280_pressure;Samples;Min_cycle;Max_cycle;Signal;HPM_P1;HPM_P2
2022/05/06 00:01:43;;;;;;;;;19.00;18.25;;;;;15.71;89.08;102256.78;5036138;28;45237;-83
2022/05/06 00:04:10;;;;;;;;;24.25;17.75;;;;;15.70;90.59;102262.84;5035939;28;45356;-83
2022/05/06 00:06:36;;;;;;;;;22.00;19.25;;;;;15.66;91.08;102260.03;5018326;28;45569;-82
2022/05/06 00:09:03;;;;;;;;;17.50;14.00;;;;;15.64;90.75;102262.53;5035596;28;45391;-82
2022/05/06 00:11:29;;;;;;;;;18.00;17.75;;;;;15.61;91.78;102254.56;5018090;28;45265;-82
2022/05/06 00:13:55;;;;;;;;;17.00;16.50;;;;;15.60;92.66;102255.41;5035654;28;45264;-83
2022/05/06 00:16:23;;;;;;;;;20.00;17.50;;;;;15.61;92.55;102259.78;5036250;28;45325;-82
2022/05/06 00:18:49;;;;;;;;;19.00;17.25;;;;;15.59;93.35;102259.72;5036059;28;46601;-81
2022/05/06 00:21:15;;;;;;;;;19.00;17.75;;;;;15.61;92.92;102258.06;5036010;28;45852;-81
2022/05/06 00:23:40;;;;;;;;;19.25;17.25;;;;;15.66;92.12;102253.06;5036129;28;45420;-82
2022/05/06 00:26:07;;;;;;;;;17.00;15.75;;;;;15.69;92.49;102254.91;5036491;28;45329;-86
2022/05/06 00:28:32;;;;;;;;;18.00;15.75;;;;;15.72;92.15;102261.16;5038516;28;46005;-86
2022/05/06 00:30:58;;;;;;;;;17.00;16.75;;;;;15.74;92.23;102256.03;5039803;28;45348;-88
2022/05/06 00:33:24;;;;;;;;;19.50;17.50;;;;;15.77;92.54;102261.38;5038995;28;45294;-86
2022/05/06 00:35:58;;;;;;;;;21.00;18.00;;;;;15.79;91.93;102257.13;5018644;28;45249;-81
2022/05/06 00:38:24;;;;;;;;;19.75;19.00;;;;;15.78;92.46;102263.19;5037003;28;46078;-87
2022/05/06 00:40:50;;;;;;;;;24.50;21.25;;;;;15.77;92.30;102257.06;5035908;28;45862;-86
2022/05/06 00:43:17;;;;;;;;;19.75;18.00;;;;;15.80;92.78;102266.75;5036627;28;45256;-87
2022/05/06 00:45:55;;;;;;;;;20.25;16.50;;;;;15.77;92.57;102262.31;5036539;28;45388;-88
2022/05/06 00:48:30;;;;;;;;;20.75;20.50;;;;;15.78;92.74;102261.47;5017819;28;47357;-87
2022/05/06 00:50:58;;;;;;;;;20.00;19.00;;;;;15.76;93.29;102257.91;5020331;28;45799;-87
2022/05/06 00:53:24;;;;;;;;;21.25;18.00;;;;;15.74;93.22;102259.53;5019254;28;45202;-87
2022/05/06 00:55:51;;;;;;;;;22.00;19.50;;;;;15.77;93.16;102253.56;5036089;28;45562;-83
2022/05/06 00:58:18;;;;;;;;;19.50;16.75;;;;;15.79;92.73;102259.75;5035865;28;46156;-87
2022/05/06 01:00:45;;;;;;;;;19.50;18.25;;;;;15.73;92.51;102255.13;5037118;28;45279;-87
2022/05/06 01:03:11;;;;;;;;;19.00;18.00;;;;;15.65;92.55;102248.66;5039077;28;45450;-87
2022/05/06 01:05:38;;;;;;;;;17.25;16.50;;;;;15.60;93.50;102252.78;5039406;28;45371;-89
2022/05/06 01:08:05;;;;;;;;;19.25;17.25;;;;;15.55;93.84;102252.53;5038523;28;45387;-88
2022/05/06 01:10:31;;;;;;;;;17.75;16.50;;;;;15.52;93.30;102247.19;5039079;28;45345;-87
2022/05/06 01:12:57;;;;;;;;;19.00;17.00;;;;;15.50;94.26;102247.91;5039077;28;45380;-88
2022/05/06 01:15:27;;;;;;;;;16.25;15.25;;;;;15.45;94.61;102253.84;5038992;28;45481;-87
2022/05/06 01:17:55;;;;;;;;;22.50;19.25;;;;;15.44;95.84;102254.66;5038676;28;45895;-86
2022/05/06 01:20:22;;;;;;;;;18.00;15.75;;;;;15.43;94.59;102263.31;5040752;28;45758;-87
2022/05/06 01:22:50;;;;;;;;;21.00;17.00;;;;;15.39;95.62;102247.44;5039330;28;45421;-88
2022/05/06 01:25:17;;;;;;;;;22.75;18.50;;;;;15.37;96.04;102251.66;5039529;28;45546;-87
2022/05/06 01:27:48;;;;;;;;;17.00;15.50;;;;;15.33;96.41;102248.91;5035446;28;45166;-87
2022/05/06 01:30:24;;;;;;;;;19.50;18.50;;;;;15.33;95.40;102258.47;5039054;28;45412;-88
2022/05/06 01:32:51;;;;;;;;;17.75;17.25;;;;;15.27;96.59;102256.44;5057286;28;45229;-82
2022/05/06 01:35:21;;;;;;;;;17.25;16.00;;;;;15.24;96.97;102258.03;5046020;28;45493;-87
2022/05/06 01:37:49;;;;;;;;;26.75;19.50;;;;;15.21;97.71;102247.41;5037759;28;46550;-86
2022/05/06 01:40:20;;;;;;;;;19.75;19.00;;;;;15.16;97.76;102253.34;5039453;28;45810;-87
2022/05/06 01:42:48;;;;;;;;;21.25;19.50;;;;;15.13;98.21;102249.66;5039602;28;45430;-87
2022/05/06 01:45:16;;;;;;;;;14.50;13.75;;;;;15.10;98.66;102245.19;5038734;28;45561;-87
2022/05/06 01:47:42;;;;;;;;;21.00;19.50;;;;;15.05;99.17;102243.16;5038972;28;45383;-88
2022/05/06 01:50:12;;;;;;;;;23.25;21.25;;;;;15.02;99.44;102244.78;5038964;28;45213;-87
2022/05/06 01:52:40;;;;;;;;;23.25;21.75;;;;;14.99;100.00;102244.66;5038590;28;45360;-88
2022/05/06 01:55:07;;;;;;;;;23.50;19.75;;;;;14.96;100.00;102257.53;5038475;28;45468;-86
2022/05/06 01:57:32;;;;;;;;;26.00;22.50;;;;;14.89;99.98;102258.06;5038232;28;45427;-86
2022/05/06 01:59:58;;;;;;;;;21.50;20.00;;;;;14.85;100.00;102257.00;5038000;28;45364;-87
2022/05/06 02:02:23;;;;;;;;;24.25;22.00;;;;;14.86;100.00;102255.28;5038348;28;45216;-87
2022/05/06 02:07:33;;;;;;;;;24.75;22.25;;;;;14.79;100.00;102261.91;5038278;28;45812;-85
2022/05/06 02:09:59;;;;;;;;;24.25;20.00;;;;;14.76;100.00;102266.06;5019953;28;45240;-87
2022/05/06 02:12:25;;;;;;;;;25.25;22.25;;;;;14.70;100.00;102259.72;5038248;28;45363;-87
2022/05/06 02:14:51;;;;;;;;;22.75;21.50;;;;;14.66;100.00;102255.16;5039824;28;45482;-86
2022/05/06 02:17:16;;;;;;;;;26.50;21.50;;;;;14.65;100.00;102255.06;5048072;28;45996;-87
2022/05/06 02:19:42;;;;;;;;;27.75;24.75;;;;;14.61;100.00;102256.59;5026905;28;45264;-87
2022/05/06 02:22:08;;;;;;;;;23.75;22.00;;;;;14.63;100.00;102257.59;5049828;28;45715;-87
2022/05/06 02:24:33;;;;;;;;;25.00;23.75;;;;;14.64;100.00;102253.25;5047162;28;45506;-87
2022/05/06 02:26:59;;;;;;;;;26.50;23.00;;;;;14.62;100.00;102254.91;5039281;28;45603;-86
2022/05/06 02:29:25;;;;;;;;;29.25;24.25;;;;;14.63;100.00;102259.31;5019763;28;45346;-87
2022/05/06 02:34:34;;;;;;;;;25.00;22.75;;;;;14.59;100.00;102249.53;5038080;28;45376;-86
2022/05/06 02:37:00;;;;;;;;;28.25;26.50;;;;;14.51;100.00;102257.88;5037524;28;46054;-87
2022/05/06 02:39:26;;;;;;;;;27.75;23.00;;;;;14.43;100.00;102247.84;5037904;28;45392;-88
2022/05/06 02:41:52;;;;;;;;;24.50;23.75;;;;;14.41;100.00;102255.59;5038209;28;45400;-88
2022/05/06 02:44:18;;;;;;;;;25.75;24.00;;;;;14.38;100.00;102256.31;5020850;28;45529;-87
2022/05/06 02:46:43;;;;;;;;;29.00;26.00;;;;;14.33;100.00;102251.66;5037654;28;45243;-87
2022/05/06 02:49:09;;;;;;;;;27.75;25.50;;;;;14.30;100.00;102254.13;5037273;28;45462;-88
2022/05/06 02:51:35;;;;;;;;;24.00;23.50;;;;;14.28;100.00;102259.25;5019629;28;45601;-88
2022/05/06 02:54:00;;;;;;;;;28.00;25.25;;;;;14.23;100.00;102261.59;5037577;28;45506;-87
2022/05/06 02:56:26;;;;;;;;;27.25;23.25;;;;;14.21;100.00;102267.56;5037171;28;45858;-88
2022/05/06 02:58:52;;;;;;;;;25.75;23.25;;;;;14.13;100.00;102264.53;5037020;28;45409;-88
2022/05/06 03:01:18;;;;;;;;;24.50;21.75;;;;;14.09;100.00;102262.59;5037708;28;45675;-83
2022/05/06 03:03:43;;;;;;;;;25.50;23.00;;;;;14.04;100.00;102259.72;5037074;28;45516;-82
2022/05/06 03:06:09;;;;;;;;;28.00;23.75;;;;;14.05;100.00;102261.50;5036693;28;45414;-83
2022/05/06 03:08:35;;;;;;;;;29.50;26.75;;;;;14.06;100.00;102259.81;5036869;28;45872;-83
2022/05/06 03:11:02;;;;;;;;;27.25;23.25;;;;;14.04;100.00;102264.03;5036907;28;45351;-83
2022/05/06 03:13:27;;;;;;;;;26.25;22.25;;;;;13.96;100.00;102261.03;5019219;28;45304;-82
2022/05/06 03:15:53;;;;;;;;;31.50;27.50;;;;;13.96;100.00;102266.22;5036328;28;45770;-83
2022/05/06 03:18:19;;;;;;;;;32.75;25.75;;;;;13.90;100.00;102264.19;5037060;28;45377;-82
2022/05/06 03:20:45;;;;;;;;;27.50;24.75;;;;;13.84;100.00;102255.13;5039526;28;45780;-82
2022/05/06 03:23:13;;;;;;;;;26.25;22.50;;;;;13.84;100.00;102261.25;5036486;28;45277;-83
2022/05/06 03:25:39;;;;;;;;;26.00;25.00;;;;;13.76;100.00;102267.75;5036768;28;46102;-87
2022/05/06 03:28:08;;;;;;;;;27.25;24.00;;;;;13.73;100.00;102262.38;5036479;28;45315;-87
2022/05/06 03:30:40;;;;;;;;;30.00;27.00;;;;;13.72;100.00;102266.66;5018836;28;45277;-87
2022/05/06 03:33:11;;;;;;;;;29.50;25.25;;;;;13.66;100.00;102250.72;5036657;28;46290;-85
2022/05/06 03:35:37;;;;;;;;;24.50;20.00;;;;;13.66;100.00;102257.66;5018406;28;45542;-88
2022/05/06 03:38:04;;;;;;;;;30.25;24.50;;;;;13.60;100.00;102264.28;5037261;28;45337;-86
2022/05/06 03:40:32;;;;;;;;;27.00;26.00;;;;;13.54;100.00;102263.97;5036869;28;45344;-87
2022/05/06 03:42:58;;;;;;;;;26.00;24.00;;;;;13.54;100.00;102270.84;5036472;28;45261;-87
2022/05/06 03:45:23;;;;;;;;;23.25;21.00;;;;;13.52;100.00;102262.97;5036483;28;45470;-87
2022/05/06 03:47:49;;;;;;;;;29.25;28.00;;;;;13.56;100.00;102269.25;5037414;28;45435;-87
2022/05/06 03:52:59;;;;;;;;;29.50;25.75;;;;;13.58;100.00;102275.44;5037314;28;45258;-87
2022/05/06 03:55:25;;;;;;;;;22.50;20.00;;;;;13.57;100.00;102274.53;5036478;28;45436;-86
2022/05/06 03:57:51;;;;;;;;;29.00;27.25;;;;;13.60;100.00;102279.91;5036523;28;45332;-86
2022/05/06 04:00:17;;;;;;;;;27.50;27.00;;;;;13.58;100.00;102281.53;5037338;28;45323;-86
2022/05/06 04:02:43;;;;;;;;;28.25;25.25;;;;;13.54;100.00;102273.47;5036955;28;45278;-87
2022/05/06 04:05:09;;;;;;;;;26.75;23.75;;;;;13.55;100.00;102278.75;5036378;28;46094;-86
2022/05/06 04:07:35;;;;;;;;;33.00;29.75;;;;;13.52;100.00;102283.78;5036461;28;45337;-86
2022/05/06 04:10:02;;;;;;;;;28.50;22.50;;;;;13.52;100.00;102280.28;5036193;28;45479;-85
2022/05/06 04:12:28;;;;;;;;;27.25;24.75;;;;;13.54;100.00;102279.59;5036567;28;45511;-86
2022/05/06 04:14:54;;;;;;;;;30.00;28.00;;;;;13.54;100.00;102276.97;5036147;28;46048;-86
2022/05/06 04:17:20;;;;;;;;;33.50;28.25;;;;;13.50;100.00;102284.53;5036455;28;45305;-82
2022/05/06 04:25:33;;;;;;;;;24.00;22.00;;;;;13.53;100.00;102285.59;5014771;28;46181;-88
2022/05/06 04:27:59;;;;;;;;;23.50;22.25;;;;;13.59;100.00;102285.03;5031889;28;45446;-87
2022/05/06 04:30:24;;;;;;;;;27.00;23.25;;;;;13.64;100.00;102286.19;5036107;28;45288;-86
2022/05/06 04:32:50;;;;;;;;;27.50;24.75;;;;;13.65;100.00;102284.50;5036472;28;45461;-82
2022/05/06 04:35:16;;;;;;;;;29.75;24.25;;;;;13.64;100.00;102286.19;5038332;28;45285;-85
2022/05/06 04:37:43;;;;;;;;;28.25;24.25;;;;;13.62;100.00;102295.59;5021760;28;45250;-87
2022/05/06 04:40:09;;;;;;;;;31.25;29.25;;;;;13.59;100.00;102298.94;5039298;28;45447;-86
2022/05/06 04:42:34;;;;;;;;;33.50;28.75;;;;;13.56;100.00;102292.66;5039628;28;45398;-86
2022/05/06 04:45:00;;;;;;;;;27.00;26.00;;;;;13.56;100.00;102300.47;5039027;28;46147;-87
2022/05/06 04:47:26;;;;;;;;;31.50;24.25;;;;;13.55;100.00;102309.97;5039302;28;45400;-86
2022/05/06 04:49:51;;;;;;;;;25.25;23.00;;;;;13.54;100.00;102304.69;5039822;28;45331;-86
2022/05/06 04:52:17;;;;;;;;;27.50;24.50;;;;;13.54;100.00;102300.41;5023188;28;45454;-86
2022/05/06 04:54:42;;;;;;;;;25.00;22.75;;;;;13.55;100.00;102309.09;5056106;28;45427;-86
2022/05/06 04:57:08;;;;;;;;;25.25;21.25;;;;;13.51;100.00;102307.09;5053794;28;45288;-86
2022/05/06 04:59:34;;;;;;;;;25.00;23.00;;;;;13.53;100.00;102314.22;5040959;28;45270;-85
2022/05/06 05:01:59;;;;;;;;;29.00;25.00;;;;;13.50;100.00;102305.34;5039817;28;45573;-86
2022/05/06 05:04:28;;;;;;;;;24.00;21.75;;;;;13.51;100.00;102312.31;5039444;28;45908;-87
2022/05/06 05:06:57;;;;;;;;;25.00;22.00;;;;;13.52;100.00;102314.09;5048712;28;45316;-83
2022/05/06 05:09:22;;;;;;;;;26.75;24.00;;;;;13.52;100.00;102307.22;5052617;28;45276;-86
2022/05/06 05:11:48;;;;;;;;;19.75;18.50;;;;;13.53;100.00;102311.59;5040564;28;45292;-86
2022/05/06 05:14:14;;;;;;;;;21.25;21.25;;;;;13.53;100.00;102306.41;5038748;28;46122;-86
2022/05/06 05:16:40;;;;;;;;;23.00;22.25;;;;;13.58;100.00;102314.47;5039500;28;45878;-86
2022/05/06 05:19:05;;;;;;;;;24.75;23.50;;;;;13.58;100.00;102310.16;5038714;28;45242;-85
2022/05/06 05:21:31;;;;;;;;;31.25;26.75;;;;;13.62;100.00;102309.53;5039175;28;45385;-86
2022/05/06 05:23:56;;;;;;;;;24.00;22.75;;;;;13.60;100.00;102307.66;5024428;28;45848;-87
2022/05/06 05:26:24;;;;;;;;;31.75;27.75;;;;;13.59;100.00;102321.47;5040321;28;45344;-86
2022/05/06 05:28:49;;;;;;;;;26.50;22.00;;;;;13.58;100.00;102315.34;5044552;28;45345;-82
2022/05/06 05:31:15;;;;;;;;;25.00;23.75;;;;;13.57;100.00;102320.47;5025930;28;45442;-86
2022/05/06 05:33:40;;;;;;;;;30.75;23.25;;;;;13.52;100.00;102321.91;5023267;28;45499;-86
2022/05/06 05:36:06;;;;;;;;;24.25;21.50;;;;;13.49;100.00;102322.63;5036819;28;45258;-86
2022/05/06 05:38:32;;;;;;;;;32.25;26.00;;;;;13.47;100.00;102324.25;5038567;28;45308;-87
2022/05/06 05:40:57;;;;;;;;;28.50;25.50;;;;;13.46;100.00;102333.78;5044339;28;45338;-86
2022/05/06 05:49:11;;;;;;;;;22.00;21.25;;;;;13.40;100.00;102333.41;4983527;28;45396;-86
2022/05/06 05:51:36;;;;;;;;;25.00;20.25;;;;;13.40;100.00;102340.34;5016539;28;45613;-86
2022/05/06 05:54:04;;;;;;;;;30.25;26.00;;;;;13.41;100.00;102334.31;5039071;28;45575;-87
2022/05/06 05:56:30;;;;;;;;;34.75;30.25;;;;;13.41;100.00;102332.59;5042379;28;45618;-86
2022/05/06 05:58:55;;;;;;;;;35.25;27.50;;;;;13.36;100.00;102328.81;5045603;28;45318;-87
2022/05/06 06:01:21;;;;;;;;;31.25;26.75;;;;;13.39;100.00;102329.00;5050763;28;45507;-83
2022/05/06 06:03:47;;;;;;;;;30.25;27.00;;;;;13.39;100.00;102320.28;5047779;28;45437;-82
2022/05/06 06:06:12;;;;;;;;;30.75;26.25;;;;;13.39;100.00;102330.69;5041190;28;45339;-82
2022/05/06 06:08:38;;;;;;;;;29.50;24.25;;;;;13.40;100.00;102322.13;5040535;28;45379;-82
2022/05/06 06:11:03;;;;;;;;;30.00;25.50;;;;;13.40;100.00;102319.50;5038916;28;45502;-83
2022/05/06 06:13:33;;;;;;;;;36.00;29.25;;;;;13.44;100.00;102319.78;5037619;28;46243;-82
2022/05/06 06:15:58;;;;;;;;;30.50;26.25;;;;;13.51;100.00;102321.03;5037606;28;45756;-83
2022/05/06 06:18:27;;;;;;;;;35.25;29.50;;;;;13.55;100.00;102322.09;5038240;28;45830;-83
2022/05/06 06:20:54;;;;;;;;;32.75;22.00;;;;;13.59;100.00;102317.16;5041227;28;45252;-88
2022/05/06 06:23:20;;;;;;;;;26.25;24.75;;;;;13.62;100.00;102316.41;5040653;28;45418;-82
2022/05/06 06:25:46;;;;;;;;;33.75;28.00;;;;;13.67;100.00;102322.78;5040097;28;45434;-87
2022/05/06 06:28:12;;;;;;;;;28.75;25.75;;;;;13.67;100.00;102328.00;5038976;28;45268;-86
2022/05/06 06:30:37;;;;;;;;;31.50;28.25;;;;;13.68;100.00;102323.69;5040673;28;45315;-86
2022/05/06 06:33:03;;;;;;;;;29.25;25.25;;;;;13.72;100.00;102333.47;5039165;28;45384;-87
2022/05/06 06:35:29;;;;;;;;;25.50;24.00;;;;;13.72;100.00;102334.34;5038489;28;45261;-86
2022/05/06 06:37:55;;;;;;;;;31.50;26.25;;;;;13.73;100.00;102328.34;5038406;28;45344;-86
2022/05/06 06:40:21;;;;;;;;;34.75;27.50;;;;;13.78;100.00;102333.78;5020783;28;45554;-86
2022/05/06 06:42:47;;;;;;;;;33.75;28.50;;;;;13.81;100.00;102328.78;5037922;28;45370;-86
2022/05/06 06:45:13;;;;;;;;;32.25;25.75;;;;;13.85;100.00;102335.03;5037334;28;45288;-87
2022/05/06 06:47:39;;;;;;;;;28.75;27.00;;;;;13.88;100.00;102335.22;5037937;28;45377;-86
2022/05/06 06:50:06;;;;;;;;;31.50;26.25;;;;;13.95;100.00;102341.66;5037427;28;45529;-88
2022/05/06 06:52:32;;;;;;;;;26.00;23.50;;;;;13.99;100.00;102339.31;5039096;28;45888;-87
2022/05/06 06:54:58;;;;;;;;;18.00;13.00;;;;;14.02;100.00;102335.97;5050359;28;45208;-84
2022/05/06 06:57:26;;;;;;;;;34.50;29.75;;;;;14.04;100.00;102326.53;5047064;28;44745;-85
2022/05/06 06:59:52;;;;;;;;;36.00;32.25;;;;;14.07;100.00;102326.72;5036880;28;45325;-82
2022/05/06 07:02:17;;;;;;;;;29.25;25.50;;;;;14.07;100.00;102322.41;5041956;28;45348;-87
2022/05/06 07:04:43;;;;;;;;;32.25;29.25;;;;;14.15;100.00;102334.94;5039538;28;45464;-89
2022/05/06 07:12:37;;;;;;;;;33.75;29.75;;;;;14.31;100.00;102334.06;5037773;28;45758;-87
2022/05/06 07:15:03;;;;;;;;;30.75;29.25;;;;;14.30;100.00;102335.78;5042787;28;45539;-85
2022/05/06 07:17:32;;;;;;;;;35.00;28.75;;;;;14.31;100.00;102328.84;5042070;28;45439;-87
2022/05/06 07:19:58;;;;;;;;;29.50;27.75;;;;;14.35;100.00;102336.03;5040316;28;45497;-87
2022/05/06 07:22:23;;;;;;;;;32.25;29.75;;;;;14.39;100.00;102338.00;5039889;28;45319;-87
2022/05/06 07:24:49;;;;;;;;;33.50;27.50;;;;;14.39;100.00;102338.00;5038026;28;45313;-88
2022/05/06 07:27:16;;;;;;;;;37.25;30.00;;;;;14.43;100.00;102344.25;5038765;28;45217;-87
2022/05/06 07:29:41;;;;;;;;;30.00;29.50;;;;;14.47;100.00;102349.72;5038888;28;45163;-86
2022/05/06 07:32:08;;;;;;;;;42.00;31.50;;;;;14.51;100.00;102343.88;5037963;28;45305;-88
2022/05/06 07:34:33;;;;;;;;;37.50;29.75;;;;;14.57;100.00;102345.91;5038583;28;45328;-88
2022/05/06 07:36:59;;;;;;;;;29.00;28.00;;;;;14.60;100.00;102347.78;5037999;28;45400;-87
2022/05/06 07:39:24;;;;;;;;;29.50;25.50;;;;;14.65;100.00;102346.28;5038442;28;45373;-88
2022/05/06 07:41:50;;;;;;;;;29.50;26.50;;;;;14.69;100.00;102343.06;5037232;28;45953;-84
2022/05/06 07:44:15;;;;;;;;;31.50;26.50;;;;;14.69;100.00;102343.06;5037335;28;45249;-86
2022/05/06 07:46:41;;;;;;;;;26.25;24.50;;;;;14.75;100.00;102350.31;5039402;28;45435;-87
2022/05/06 07:49:07;;;;;;;;;29.25;25.75;;;;;14.75;100.00;102348.59;5040035;28;45318;-88
2022/05/06 07:51:33;;;;;;;;;29.25;27.00;;;;;14.79;100.00;102340.13;5037359;28;45301;-89
2022/05/06 07:53:58;;;;;;;;;32.75;28.50;;;;;14.83;100.00;102342.09;5037409;28;45274;-89
2022/05/06 07:56:26;;;;;;;;;30.00;27.25;;;;;14.87;100.00;102343.13;5036958;28;45293;-83
2022/05/06 07:58:53;;;;;;;;;29.50;28.25;;;;;14.92;100.00;102341.66;5036169;28;45300;-82
2022/05/06 08:06:47;;;;;;;;;29.00;27.75;;;;;15.00;100.00;102335.13;5036305;28;45252;-82
2022/05/06 08:09:13;;;;;;;;;29.00;25.50;;;;;15.05;100.00;102327.53;5017814;28;45606;-82
2022/05/06 08:11:38;;;;;;;;;29.00;27.00;;;;;15.06;100.00;102326.72;5036620;28;45438;-86
2022/05/06 08:14:04;;;;;;;;;27.50;24.25;;;;;15.12;100.00;102336.56;5036763;28;45411;-85
2022/05/06 08:16:29;;;;;;;;;26.00;22.50;;;;;15.16;100.00;102329.00;5038552;28;45305;-86
2022/05/06 08:18:55;;;;;;;;;29.50;27.50;;;;;15.21;100.00;102337.03;5037653;28;45396;-88
2022/05/06 08:21:21;;;;;;;;;27.00;23.00;;;;;15.27;100.00;102341.69;5036694;28;45316;-87
2022/05/06 08:23:46;;;;;;;;;20.75;18.75;;;;;15.33;100.00;102332.41;5037977;28;45449;-87
2022/05/06 08:26:12;;;;;;;;;20.75;19.75;;;;;15.36;100.00;102326.47;5019694;28;45309;-88
2022/05/06 08:28:37;;;;;;;;;23.00;21.25;;;;;15.43;100.00;102319.84;5037780;28;45426;-86
2022/05/06 08:31:03;;;;;;;;;18.50;18.00;;;;;15.47;100.00;102322.69;5036270;28;46223;-89
2022/05/06 08:33:29;;;;;;;;;22.00;17.75;;;;;15.54;100.00;102323.88;5036687;28;45344;-89
2022/05/06 08:35:54;;;;;;;;;16.50;16.50;;;;;15.60;100.00;102320.66;5047667;28;45312;-90
2022/05/06 08:38:21;;;;;;;;;15.00;13.75;;;;;15.66;100.00;102325.28;5046545;28;45324;-86
2022/05/06 08:40:49;;;;;;;;;20.50;18.00;;;;;15.69;100.00;102326.31;5035279;28;46702;-86
2022/05/06 08:43:15;;;;;;;;;17.75;17.25;;;;;15.70;100.00;102315.06;5055180;28;45144;-88
2022/05/06 08:51:10;;;;;;;;;22.50;18.25;;;;;15.90;100.00;102312.53;5036278;28;45472;-86
2022/05/06 08:53:40;;;;;;;;;18.25;14.50;;;;;15.92;100.00;102309.16;5036489;28;45341;-88
2022/05/06 08:56:06;;;;;;;;;13.75;13.75;;;;;15.98;100.00;102308.56;5036393;28;45269;-87
2022/05/06 08:58:37;;;;;;;;;20.00;15.50;;;;;16.04;100.00;102307.94;5036413;28;45489;-88
2022/05/06 09:01:11;;;;;;;;;18.25;13.75;;;;;16.08;100.00;102304.66;5035985;28;45743;-88
2022/05/06 09:03:41;;;;;;;;;19.00;17.75;;;;;16.15;100.00;102295.34;5017622;28;45874;-84
2022/05/06 09:06:21;;;;;;;;;15.25;13.25;;;;;16.19;100.00;102308.66;5036341;28;45302;-83
2022/05/06 09:08:49;;;;;;;;;16.00;13.75;;;;;16.23;100.00;102305.34;5036420;28;45410;-84
2022/05/06 09:11:17;;;;;;;;;8.50;6.00;;;;;16.28;100.00;102300.34;5020132;28;47247;-83
2022/05/06 09:13:58;;;;;;;;;15.75;13.75;;;;;16.32;100.00;102299.66;5037707;28;45918;-83
2022/05/06 09:16:44;;;;;;;;;13.00;12.00;;;;;16.42;100.00;102300.06;5036577;28;45339;-88
2022/05/06 09:19:14;;;;;;;;;12.00;11.25;;;;;16.48;100.00;102293.38;5036755;28;45259;-86
2022/05/06 09:21:43;;;;;;;;;8.50;8.50;;;;;16.60;99.10;102300.88;5037161;28;46474;-88
2022/05/06 09:24:19;;;;;;;;;9.50;8.00;;;;;16.69;96.91;102300.38;5039129;28;45228;-89
2022/05/06 09:27:01;;;;;;;;;9.25;9.25;;;;;16.77;95.92;102295.50;5024533;28;45820;-87
2022/05/06 09:29:41;;;;;;;;;11.50;11.25;;;;;16.83;94.28;102287.91;5041554;28;45265;-87
2022/05/06 09:32:21;;;;;;;;;10.25;8.50;;;;;16.91;92.93;102294.34;5039161;28;45983;-86
2022/05/06 09:34:48;;;;;;;;;11.75;11.50;;;;;16.96;90.90;102294.56;5040141;28;45401;-89
2022/05/06 09:37:40;;;;;;;;;11.00;8.50;;;;;16.98;89.52;102290.31;5039320;28;45309;-88
2022/05/06 09:40:10;;;;;;;;;10.50;10.50;;;;;16.98;88.00;102288.59;5039812;28;45268;-88
2022/05/06 09:42:42;;;;;;;;;8.75;8.50;;;;;17.00;88.05;102283.41;5021243;28;47495;-88
2022/05/06 09:45:10;;;;;;;;;9.00;8.00;;;;;17.02;88.71;102287.00;5038492;28;45426;-88
2022/05/06 09:47:37;;;;;;;;;8.00;8.00;;;;;17.05;87.81;102283.59;5038957;28;45361;-87
2022/05/06 09:50:05;;;;;;;;;10.75;9.25;;;;;17.06;87.14;102280.16;5038411;28;45515;-86
2022/05/06 09:52:31;;;;;;;;;9.75;9.75;;;;;17.06;86.49;102285.41;5038159;28;45440;-87
2022/05/06 09:54:57;;;;;;;;;8.50;8.25;;;;;17.05;85.37;102276.66;5037906;28;45498;-87
2022/05/06 09:57:23;;;;;;;;;7.00;7.00;;;;;17.04;85.69;102277.50;5020343;28;45450;-86
2022/05/06 09:59:50;;;;;;;;;10.25;7.75;;;;;17.06;85.87;102281.03;5020831;28;45509;-86
2022/05/06 10:02:17;;;;;;;;;9.00;8.50;;;;;17.11;85.09;102279.53;5038489;28;45336;-84
2022/05/06 10:04:44;;;;;;;;;9.50;9.00;;;;;17.17;84.29;102278.88;5038066;28;45760;-86
2022/05/06 10:07:12;;;;;;;;;9.25;9.25;;;;;17.18;84.20;102272.81;5037873;28;45264;-86
2022/05/06 10:09:57;;;;;;;;;13.50;10.25;;;;;17.24;83.05;102272.19;5038970;28;45498;-89
2022/05/06 10:12:26;;;;;;;;;12.75;10.00;;;;;17.28;81.57;102267.13;5046491;28;46147;-86
2022/05/06 10:14:53;;;;;;;;;7.25;7.25;;;;;17.36;80.64;102271.78;5035208;28;45333;-86
2022/05/06 10:17:48;;;;;;;;;7.75;7.25;;;;;17.42;79.95;102269.41;5043396;28;45502;-88
2022/05/06 10:23:04;;;;;;;;;10.25;10.25;;;;;17.52;79.64;102262.81;5041729;28;45845;-89
2022/05/06 10:25:41;;;;;;;;;9.25;9.25;;;;;17.62;78.69;102263.25;5039557;28;45428;-88
2022/05/06 10:34:22;;;;;;;;;11.75;9.50;;;;;17.80;77.54;102262.16;5038074;28;45359;-86
2022/05/06 10:36:53;;;;;;;;;6.50;6.50;;;;;17.87;77.50;102253.69;5040406;28;45906;-85
2022/05/06 10:39:24;;;;;;;;;9.00;8.50;;;;;17.92;77.39;102253.88;5021529;28;45358;-87
2022/05/06 10:42:09;;;;;;;;;7.50;7.50;;;;;17.99;78.16;102255.00;5040215;28;45372;-83
2022/05/06 10:44:38;;;;;;;;;12.00;11.50;;;;;18.05;77.44;102248.28;5038274;28;46447;-88
2022/05/06 10:47:15;;;;;;;;;12.75;11.75;;;;;18.17;76.52;102250.47;5037221;28;45418;-87
2022/05/06 10:49:46;;;;;;;;;11.00;10.00;;;;;18.23;75.60;102242.81;5037786;28;45343;-88
2022/05/06 10:52:20;;;;;;;;;11.75;11.75;;;;;18.30;74.61;102243.94;5038812;28;45230;-87
2022/05/06 10:54:50;;;;;;;;;11.75;10.50;;;;;18.35;74.63;102245.00;5019739;28;47333;-87
2022/05/06 10:57:18;;;;;;;;;7.50;7.50;;;;;18.40;74.09;102248.69;5037813;28;45854;-88
2022/05/06 10:59:48;;;;;;;;;8.00;7.00;;;;;18.40;74.51;102238.19;5037776;28;45387;-86
2022/05/06 11:02:14;;;;;;;;;11.25;10.75;;;;;18.43;75.55;102239.13;5037148;28;45373;-86
2022/05/06 11:04:43;;;;;;;;;11.25;9.00;;;;;18.52;72.25;102242.97;5036820;28;45395;-85
2022/05/06 11:07:12;;;;;;;;;12.00;11.25;;;;;18.59;72.53;102232.69;5036888;28;46033;-84
2022/05/06 11:09:38;;;;;;;;;12.25;10.00;;;;;18.64;71.48;102236.34;5019012;28;45383;-86
2022/05/06 11:12:04;;;;;;;;;9.75;9.00;;;;;18.63;71.76;102238.09;5036728;28;45629;-85
2022/05/06 11:14:29;;;;;;;;;9.00;8.00;;;;;18.63;71.82;102232.84;5036482;28;45974;-85
2022/05/06 11:17:16;;;;;;;;;9.25;8.00;;;;;18.62;71.89;102224.94;5036490;28;45362;-85
2022/05/06 11:19:42;;;;;;;;;7.50;7.00;;;;;18.67;71.99;102220.72;5036829;28;45324;-85
2022/05/06 11:22:08;;;;;;;;;9.75;7.75;;;;;18.79;70.67;102225.53;5036893;28;45450;-86
2022/05/06 11:24:34;;;;;;;;;6.00;6.00;;;;;18.86;69.59;102217.88;5037099;28;45357;-83
2022/05/06 11:27:20;;;;;;;;;7.00;7.00;;;;;18.96;69.24;102220.81;5039207;28;46027;-84
2022/05/06 11:29:59;;;;;;;;;7.25;7.00;;;;;19.00;69.14;102215.75;5039301;28;45317;-88
2022/05/06 11:32:27;;;;;;;;;9.00;6.50;;;;;19.03;68.31;102215.84;5039843;28;45364;-83
2022/05/06 11:35:04;;;;;;;;;7.50;7.00;;;;;19.09;68.02;102223.03;5037263;28;45494;-82
2022/05/06 11:37:34;;;;;;;;;10.25;7.75;;;;;19.14;67.81;102224.06;5039372;28;45193;-83
2022/05/06 11:42:44;;;;;;;;;6.00;5.00;;;;;19.34;65.45;102216.81;5037185;28;45299;-84
2022/05/06 11:48:12;;;;;;;;;5.50;4.25;;;;;19.58;65.73;102205.28;5036768;28;46187;-80
2022/05/06 11:50:40;;;;;;;;;3.00;2.00;;;;;19.61;63.46;102208.00;5037146;28;45849;-82
2022/05/06 11:53:08;;;;;;;;;5.00;5.00;;;;;19.64;63.78;102213.34;5037478;28;45575;-81
2022/05/06 11:55:36;;;;;;;;;7.00;6.00;;;;;19.73;64.46;102211.84;5037513;28;46207;-82
2022/05/06 11:58:07;;;;;;;;;7.00;7.00;;;;;19.83;62.98;102206.00;5037561;28;45778;-82
2022/05/06 12:00:33;;;;;;;;;6.75;6.00;;;;;19.94;62.90;102211.59;5037874;28;45363;-82